sensor_id;sensor_type;location;lat;lon;timestamp;P1;P2;P0
45112;PMS5003;30873;53.908;27.576;2022-08-04T00:03:57;18.6;17.8;12.4
45112;PMS5003;30873;53.908;27.576;2022-08-04T00:08:55;19.5;16.9;12.1
45112;PMS5003;30873;53.908;27.576;2022-08-04T00:14:00;18.7;17.1;11.9
45112;PMS5003;30873;53.908;27.576;2022-08-04T00:18:56;18.9;17.1;12
45112;PMS5003;30873;53.908;27.576;2022-08-04T00:23:54;20.2;18.3;12.6
45112;PMS5003;30873;53.908;27.576;2022-08-04T00:28:54;19;17.4;12.2
45112;PMS5003;30873;53.908;27.576;2022-08-04T00:33:54;18.6;17.4;12.4
45112;PMS5003;30873;53.908;27.576;2022-08-04T00:38:54;17.1;15.2;11.3
45112;PMS5003;30873;53.908;27.576;2022-08-04T00:44:02;17.1;16.7;11.6
45112;PMS5003;30873;53.908;27.576;2022-08-04T00:48:59;17.1;16.1;11.1
45112;PMS5003;30873;53.908;27.576;2022-08-04T00:54:01;17.7;15.6;10.9
45112;PMS5003;30873;53.908;27.576;2022-08-04T00:59:02;17;16.3;11.3
45112;PMS5003;30873;53.908;27.576;2022-08-04T01:04:14;15.6;14;10.6
45112;PMS5003;30873;53.908;27.576;2022-08-04T01:09:26;16.1;15.2;10.7
45112;PMS5003;30873;53.908;27.576;2022-08-04T01:14:13;15;13.9;10.7
45112;PMS5003;30873;53.908;27.576;2022-08-04T01:18:56;16.4;14.6;10.7
45112;PMS5003;30873;53.908;27.576;2022-08-04T01:29:10;15.7;13.6;9.7
45112;PMS5003;30873;53.908;27.576;2022-08-04T01:33:54;15.5;14;10.1
45112;PMS5003;30873;53.908;27.576;2022-08-04T01:38:54;14.4;12.7;9.6
45112;PMS5003;30873;53.908;27.576;2022-08-04T01:43:54;14.7;13.5;9.7
45112;PMS5003;30873;53.908;27.576;2022-08-04T01:48:54;14.3;13;9.7
45112;PMS5003;30873;53.908;27.576;2022-08-04T01:53:54;14.1;12.8;9.6
45112;PMS5003;30873;53.908;27.576;2022-08-04T01:58:56;14.9;13.5;9.9
45112;PMS5003;30873;53.908;27.576;2022-08-04T02:03:54;15.2;14.1;9.9
45112;PMS5003;30873;53.908;27.576;2022-08-04T02:09:29;15.9;14.6;10.4
45112;PMS5003;30873;53.908;27.576;2022-08-04T02:18:59;17.3;16.5;11.3
45112;PMS5003;30873;53.908;27.576;2022-08-04T02:23:56;16.5;14.5;10.6
45112;PMS5003;30873;53.908;27.576;2022-08-04T02:28:58;15.1;14.1;10
45112;PMS5003;30873;53.908;27.576;2022-08-04T02:33:58;16.2;14.9;10.8
45112;PMS5003;30873;53.908;27.576;2022-08-04T02:38:58;16.6;15.3;10.3
45112;PMS5003;30873;53.908;27.576;2022-08-04T02:43:56;14.9;14.1;10.3
45112;PMS5003;30873;53.908;27.576;2022-08-04T02:48:54;16.4;15.4;10.2
45112;PMS5003;30873;53.908;27.576;2022-08-04T02:53:56;16.4;14.8;10.7
45112;PMS5003;30873;53.908;27.576;2022-08-04T02:58:57;16.2;15.1;10.7
45112;PMS5003;30873;53.908;27.576;2022-08-04T03:04:00;14.6;13.2;9.7
45112;PMS5003;30873;53.908;27.576;2022-08-04T03:14:04;16;14.5;10.4
45112;PMS5003;30873;53.908;27.576;2022-08-04T03:29:19;15.7;14.7;10.5
45112;PMS5003;30873;53.908;27.576;2022-08-04T03:39:00;15.6;15.5;11
45112;PMS5003;30873;53.908;27.576;2022-08-04T03:49:07;15.6;14.2;10.2
45112;PMS5003;30873;53.908;27.576;2022-08-04T03:54:31;15.6;14.8;10.4
45112;PMS5003;30873;53.908;27.576;2022-08-04T03:59:03;15.7;14.4;10.6
45112;PMS5003;30873;53.908;27.576;2022-08-04T04:04:59;17.2;15.7;11.5
45112;PMS5003;30873;53.908;27.576;2022-08-04T04:09:02;17.6;16.2;11.8
45112;PMS5003;30873;53.908;27.576;2022-08-04T04:14:04;16.2;14.3;10.9
45112;PMS5003;30873;53.908;27.576;2022-08-04T04:19:01;16.5;16;10.9
45112;PMS5003;30873;53.908;27.576;2022-08-04T04:24:05;16.2;13.9;10.8
45112;PMS5003;30873;53.908;27.576;2022-08-04T04:29:20;17.6;16.1;11.7
45112;PMS5003;30873;53.908;27.576;2022-08-04T04:34:03;16.8;15.7;11.8
45112;PMS5003;30873;53.908;27.576;2022-08-04T04:49:00;15.7;14.9;11.1
45112;PMS5003;30873;53.908;27.576;2022-08-04T04:54:02;16.9;15.6;11.8
45112;PMS5003;30873;53.908;27.576;2022-08-04T04:58:54;16.6;16;13
45112;PMS5003;30873;53.908;27.576;2022-08-04T05:09:04;14.5;13.5;10.1
45112;PMS5003;30873;53.908;27.576;2022-08-04T05:13:58;16.2;15.2;11
45112;PMS5003;30873;53.908;27.576;2022-08-04T05:19:16;17.1;16.1;12.4
45112;PMS5003;30873;53.908;27.576;2022-08-04T05:23:55;15.9;14.2;10.2
45112;PMS5003;30873;53.908;27.576;2022-08-04T05:28:55;16.9;15.8;11.9
45112;PMS5003;30873;53.908;27.576;2022-08-04T05:33:55;14.9;13.9;10.2
45112;PMS5003;30873;53.908;27.576;2022-08-04T05:38:54;14.1;14;10.6
45112;PMS5003;30873;53.908;27.576;2022-08-04T05:43:54;13.6;13;10
45112;PMS5003;30873;53.908;27.576;2022-08-04T05:48:54;14.5;14.1;11.2
45112;PMS5003;30873;53.908;27.576;2022-08-04T05:53:54;16.3;15.4;11.7
45112;PMS5003;30873;53.908;27.576;2022-08-04T05:58:54;13.3;13;9.9
45112;PMS5003;30873;53.908;27.576;2022-08-04T06:03:56;13.5;13;10.2
45112;PMS5003;30873;53.908;27.576;2022-08-04T06:08:54;13.8;13;9.8
45112;PMS5003;30873;53.908;27.576;2022-08-04T06:13:56;13.9;13.1;10.1
45112;PMS5003;30873;53.908;27.576;2022-08-04T06:18:54;12.3;11.9;9.1
45112;PMS5003;30873;53.908;27.576;2022-08-04T06:23:54;11.8;11.2;8.6
45112;PMS5003;30873;53.908;27.576;2022-08-04T06:28:54;12.6;12;9.3
45112;PMS5003;30873;53.908;27.576;2022-08-04T06:33:54;12.8;12.2;9.1
45112;PMS5003;30873;53.908;27.576;2022-08-04T06:38:54;12;11.2;8.2
45112;PMS5003;30873;53.908;27.576;2022-08-04T06:43:55;12.4;11.8;8.7
45112;PMS5003;30873;53.908;27.576;2022-08-04T06:48:54;12.2;11.5;8.8
45112;PMS5003;30873;53.908;27.576;2022-08-04T06:53:54;13.2;12.8;9.2
45112;PMS5003;30873;53.908;27.576;2022-08-04T06:58:54;13.8;13.1;10
45112;PMS5003;30873;53.908;27.576;2022-08-04T07:03:54;11.7;11.1;8.6
45112;PMS5003;30873;53.908;27.576;2022-08-04T07:08:54;12.4;12;8.5
45112;PMS5003;30873;53.908;27.576;2022-08-04T07:13:54;12.1;11.7;8.8
45112;PMS5003;30873;53.908;27.576;2022-08-04T07:18:54;11.4;11;8.3
45112;PMS5003;30873;53.908;27.576;2022-08-04T07:23:54;13.3;13;10.1
45112;PMS5003;30873;53.908;27.576;2022-08-04T07:28:54;13;12.5;9.5
45112;PMS5003;30873;53.908;27.576;2022-08-04T07:33:55;15.7;15.3;12.1
45112;PMS5003;30873;53.908;27.576;2022-08-04T07:38:54;14.5;14.1;10.8
45112;PMS5003;30873;53.908;27.576;2022-08-04T07:43:54;14.4;13.2;10.3
45112;PMS5003;30873;53.908;27.576;2022-08-04T07:48:54;15.5;14.6;11.9
45112;PMS5003;30873;53.908;27.576;2022-08-04T07:53:54;14.1;13.6;11.1
45112;PMS5003;30873;53.908;27.576;2022-08-04T07:58:54;12.1;11.9;8.9
45112;PMS5003;30873;53.908;27.576;2022-08-04T08:03:55;11.9;11.4;9
45112;PMS5003;30873;53.908;27.576;2022-08-04T08:08:54;13.6;12.7;9.5
45112;PMS5003;30873;53.908;27.576;2022-08-04T08:13:54;14.3;13.5;10.3
45112;PMS5003;30873;53.908;27.576;2022-08-04T08:18:54;13.1;12.3;9.8
45112;PMS5003;30873;53.908;27.576;2022-08-04T08:23:54;13.9;13.3;10.4
45112;PMS5003;30873;53.908;27.576;2022-08-04T08:28:54;15.3;14.8;11.8
45112;PMS5003;30873;53.908;27.576;2022-08-04T08:33:54;12.9;12.2;9.1
45112;PMS5003;30873;53.908;27.576;2022-08-04T08:39:12;12.5;12.1;9.2
45112;PMS5003;30873;53.908;27.576;2022-08-04T08:44:04;13.1;11.9;9.4
45112;PMS5003;30873;53.908;27.576;2022-08-04T08:49:01;14.1;13.6;10.5
45112;PMS5003;30873;53.908;27.576;2022-08-04T08:54:04;14.7;13.8;10.9
45112;PMS5003;30873;53.908;27.576;2022-08-04T09:04:04;15.6;15.1;12
45112;PMS5003;30873;53.908;27.576;2022-08-04T09:09:13;15.7;14.9;11.5
45112;PMS5003;30873;53.908;27.576;2022-08-04T09:13:56;14.8;13.5;10.6
45112;PMS5003;30873;53.908;27.576;2022-08-04T09:18:58;13.3;13;10.1
45112;PMS5003;30873;53.908;27.576;2022-08-04T09:23:59;12.3;12;9.2
45112;PMS5003;30873;53.908;27.576;2022-08-04T09:28:58;13.4;12.9;10
45112;PMS5003;30873;53.908;27.576;2022-08-04T09:39:02;14.1;13.8;10.4
45112;PMS5003;30873;53.908;27.576;2022-08-04T09:44:44;13.3;12.8;9.8
45112;PMS5003;30873;53.908;27.576;2022-08-04T09:48:57;13.7;12.5;9.8
45112;PMS5003;30873;53.908;27.576;2022-08-04T09:53:56;13.5;13;10.4
45112;PMS5003;30873;53.908;27.576;2022-08-04T09:59:00;22.3;19.7;14.6
45112;PMS5003;30873;53.908;27.576;2022-08-04T10:03:55;15.6;14.8;11.3
45112;PMS5003;30873;53.908;27.576;2022-08-04T10:09:12;14.5;14.3;11
45112;PMS5003;30873;53.908;27.576;2022-08-04T10:13:56;14.6;14.1;11.1
45112;PMS5003;30873;53.908;27.576;2022-08-04T10:18:57;12.9;12.2;9.6
45112;PMS5003;30873;53.908;27.576;2022-08-04T10:24:14;12.7;12;9.3
45112;PMS5003;30873;53.908;27.576;2022-08-04T10:28:55;14.1;13.2;10.2
45112;PMS5003;30873;53.908;27.576;2022-08-04T10:34:00;12.7;12.3;9.3
45112;PMS5003;30873;53.908;27.576;2022-08-04T10:39:12;14.2;13.8;10.7
45112;PMS5003;30873;53.908;27.576;2022-08-04T10:44:00;14.2;13.5;10.8
45112;PMS5003;30873;53.908;27.576;2022-08-04T10:48:56;10.7;10.3;8.3
45112;PMS5003;30873;53.908;27.576;2022-08-04T10:54:02;11.7;10.9;8.6
45112;PMS5003;30873;53.908;27.576;2022-08-04T10:58:56;12.5;11.4;9.2
45112;PMS5003;30873;53.908;27.576;2022-08-04T11:03:55;12.6;12.4;9.6
45112;PMS5003;30873;53.908;27.576;2022-08-04T11:08:54;25.5;23.8;19.5
45112;PMS5003;30873;53.908;27.576;2022-08-04T11:14:27;32;29.9;23.4
45112;PMS5003;30873;53.908;27.576;2022-08-04T11:19:00;19.3;18.3;13.7
45112;PMS5003;30873;53.908;27.576;2022-08-04T11:24:33;13.5;12.9;9.9
45112;PMS5003;30873;53.908;27.576;2022-08-04T11:29:04;13.4;12.8;10
45112;PMS5003;30873;53.908;27.576;2022-08-04T11:33:57;26.8;25.6;19.6
45112;PMS5003;30873;53.908;27.576;2022-08-04T11:39:11;17.3;16.2;12.6
45112;PMS5003;30873;53.908;27.576;2022-08-04T11:43:54;13.7;13;9.7
45112;PMS5003;30873;53.908;27.576;2022-08-04T11:49:00;11.9;11.8;9.4
45112;PMS5003;30873;53.908;27.576;2022-08-04T11:53:54;12;11.6;9.1
45112;PMS5003;30873;53.908;27.576;2022-08-04T11:58:54;13;12.6;10.1
45112;PMS5003;30873;53.908;27.576;2022-08-04T12:04:59;14.2;13.7;11.4
45112;PMS5003;30873;53.908;27.576;2022-08-04T12:09:03;12.6;12.1;9.1
45112;PMS5003;30873;53.908;27.576;2022-08-04T12:14:29;12.5;12.2;9.6
45112;PMS5003;30873;53.908;27.576;2022-08-04T12:18:56;12.5;12.3;9.7
45112;PMS5003;30873;53.908;27.576;2022-08-04T12:23:56;11.8;11.7;9.1
45112;PMS5003;30873;53.908;27.576;2022-08-04T12:28:57;13.7;13.4;11.5
45112;PMS5003;30873;53.908;27.576;2022-08-04T12:33:57;13.7;12.8;10.2
45112;PMS5003;30873;53.908;27.576;2022-08-04T12:38:58;13.7;13.1;9.9
45112;PMS5003;30873;53.908;27.576;2022-08-04T12:43:54;14.2;13.7;11.1
45112;PMS5003;30873;53.908;27.576;2022-08-04T12:48:57;11.9;11.8;9.3
45112;PMS5003;30873;53.908;27.576;2022-08-04T12:53:54;12.2;12;9.2
45112;PMS5003;30873;53.908;27.576;2022-08-04T12:58:59;12.9;12.5;10.2
45112;PMS5003;30873;53.908;27.576;2022-08-04T13:03:55;13.6;13.1;9.8
45112;PMS5003;30873;53.908;27.576;2022-08-04T13:08:54;13.9;13.3;10.5
45112;PMS5003;30873;53.908;27.576;2022-08-04T13:13:54;13;12.1;9.6
45112;PMS5003;30873;53.908;27.576;2022-08-04T13:18:54;11.6;11.4;8.7
45112;PMS5003;30873;53.908;27.576;2022-08-04T13:23:55;13.4;12.9;10.3
45112;PMS5003;30873;53.908;27.576;2022-08-04T13:28:56;12;12;9.2
45112;PMS5003;30873;53.908;27.576;2022-08-04T13:34:00;14.3;13.6;10.8
45112;PMS5003;30873;53.908;27.576;2022-08-04T13:38:55;13.9;13.4;10.9
45112;PMS5003;30873;53.908;27.576;2022-08-04T13:43:55;12.3;11.9;9
45112;PMS5003;30873;53.908;27.576;2022-08-04T13:48:55;15;14.8;12.4
45112;PMS5003;30873;53.908;27.576;2022-08-04T13:53:55;12.4;12.3;10
45112;PMS5003;30873;53.908;27.576;2022-08-04T13:58:54;11.8;11.6;9.1
45112;PMS5003;30873;53.908;27.576;2022-08-04T14:03:56;13.2;12.7;10
45112;PMS5003;30873;53.908;27.576;2022-08-04T14:08:55;11.6;11.5;9.1
45112;PMS5003;30873;53.908;27.576;2022-08-04T14:13:54;12.1;12;9.9
45112;PMS5003;30873;53.908;27.576;2022-08-04T14:18:58;11.4;11.1;9.1
45112;PMS5003;30873;53.908;27.576;2022-08-04T14:23:55;12;11.9;9.5
45112;PMS5003;30873;53.908;27.576;2022-08-04T14:28:55;12.3;11.9;9.6
45112;PMS5003;30873;53.908;27.576;2022-08-04T14:33:54;11.8;11.8;9.8
45112;PMS5003;30873;53.908;27.576;2022-08-04T14:38:55;11.7;11.5;9.4
45112;PMS5003;30873;53.908;27.576;2022-08-04T14:43:55;12.3;12.3;10
45112;PMS5003;30873;53.908;27.576;2022-08-04T14:49:11;12.9;12.8;10.2
45112;PMS5003;30873;53.908;27.576;2022-08-04T14:53:54;12.7;12.5;10.1
45112;PMS5003;30873;53.908;27.576;2022-08-04T14:59:03;10.9;10.6;8.4
45112;PMS5003;30873;53.908;27.576;2022-08-04T15:03:55;14.5;14.1;11.3
45112;PMS5003;30873;53.908;27.576;2022-08-04T15:08:55;13.1;12.7;10.3
45112;PMS5003;30873;53.908;27.576;2022-08-04T15:13:55;13.5;13.1;10.1
45112;PMS5003;30873;53.908;27.576;2022-08-04T15:18:54;13.3;12.9;10.4
45112;PMS5003;30873;53.908;27.576;2022-08-04T15:23:55;12.2;11.8;9.6
45112;PMS5003;30873;53.908;27.576;2022-08-04T15:28:55;12.1;12.1;9.6
45112;PMS5003;30873;53.908;27.576;2022-08-04T15:33:54;12.9;11.8;9.3
45112;PMS5003;30873;53.908;27.576;2022-08-04T15:39:01;12.5;12.3;9.9
45112;PMS5003;30873;53.908;27.576;2022-08-04T15:44:05;15.9;15.6;12.4
45112;PMS5003;30873;53.908;27.576;2022-08-04T15:48:54;20.2;19.8;16.4
45112;PMS5003;30873;53.908;27.576;2022-08-04T15:58:54;20.9;20.2;16.9
45112;PMS5003;30873;53.908;27.576;2022-08-04T16:03:54;13.4;13;10.1
45112;PMS5003;30873;53.908;27.576;2022-08-04T16:09:02;12.3;12.3;9.8
45112;PMS5003;30873;53.908;27.576;2022-08-04T16:18:54;12.8;12.4;9.8
45112;PMS5003;30873;53.908;27.576;2022-08-04T16:23:58;16.2;15.7;12.2
45112;PMS5003;30873;53.908;27.576;2022-08-04T16:28:54;14.3;13.9;11.1
45112;PMS5003;30873;53.908;27.576;2022-08-04T16:33:57;15.2;14.6;11.1
45112;PMS5003;30873;53.908;27.576;2022-08-04T16:39:02;16.9;16.2;12.2
45112;PMS5003;30873;53.908;27.576;2022-08-04T16:43:57;14.2;13.8;10.2
45112;PMS5003;30873;53.908;27.576;2022-08-04T16:49:09;14.3;13.9;10.6
45112;PMS5003;30873;53.908;27.576;2022-08-04T16:53:54;15.5;14.8;10.9
45112;PMS5003;30873;53.908;27.576;2022-08-04T16:58:54;14.8;14.6;11.2
45112;PMS5003;30873;53.908;27.576;2022-08-04T17:03:54;15.6;14.9;11.4
45112;PMS5003;30873;53.908;27.576;2022-08-04T17:08:54;15.4;14.6;10.3
45112;PMS5003;30873;53.908;27.576;2022-08-04T17:13:54;17.4;16;11.9
45112;PMS5003;30873;53.908;27.576;2022-08-04T17:18:54;18.5;17.8;13.4
45112;PMS5003;30873;53.908;27.576;2022-08-04T17:23:55;25.3;24.1;18.4
45112;PMS5003;30873;53.908;27.576;2022-08-04T17:28:54;18.4;17.9;14.3
45112;PMS5003;30873;53.908;27.576;2022-08-04T17:33:55;18.7;17.7;13.1
45112;PMS5003;30873;53.908;27.576;2022-08-04T17:38:55;16.9;16;12.1
45112;PMS5003;30873;53.908;27.576;2022-08-04T17:43:57;18.9;17.6;12.5
45112;PMS5003;30873;53.908;27.576;2022-08-04T17:48:56;19.7;18.7;14
45112;PMS5003;30873;53.908;27.576;2022-08-04T17:53:54;21.4;20.6;15.8
45112;PMS5003;30873;53.908;27.576;2022-08-04T17:59:26;34.9;31.3;24.2
45112;PMS5003;30873;53.908;27.576;2022-08-04T18:03:54;34.6;31.7;23.9
45112;PMS5003;30873;53.908;27.576;2022-08-04T18:08:54;36;32.5;24.5
45112;PMS5003;30873;53.908;27.576;2022-08-04T18:13:54;37.8;34;25.2
45112;PMS5003;30873;53.908;27.576;2022-08-04T18:19:10;23.8;21.9;15.8
45112;PMS5003;30873;53.908;27.576;2022-08-04T18:23:54;21.4;19.7;14.5
45112;PMS5003;30873;53.908;27.576;2022-08-04T18:28:54;22.5;21.4;15.1
45112;PMS5003;30873;53.908;27.576;2022-08-04T18:33:54;22.7;21.2;15
45112;PMS5003;30873;53.908;27.576;2022-08-04T18:38:54;23.8;22.4;16.3
45112;PMS5003;30873;53.908;27.576;2022-08-04T18:43:54;23.1;21.7;15.1
45112;PMS5003;30873;53.908;27.576;2022-08-04T18:48:54;22.8;21.8;15.5
45112;PMS5003;30873;53.908;27.576;2022-08-04T18:53:54;22.9;21.4;15.7
45112;PMS5003;30873;53.908;27.576;2022-08-04T18:58:54;24.5;23;16.1
45112;PMS5003;30873;53.908;27.576;2022-08-04T19:03:54;27.2;25.3;17.5
45112;PMS5003;30873;53.908;27.576;2022-08-04T19:08:54;26.7;24.4;17.7
45112;PMS5003;30873;53.908;27.576;2022-08-04T19:13:54;27.6;25.8;17.8
45112;PMS5003;30873;53.908;27.576;2022-08-04T19:18:55;29;26.2;18.3
45112;PMS5003;30873;53.908;27.576;2022-08-04T19:23:54;30.8;28.4;19.9
45112;PMS5003;30873;53.908;27.576;2022-08-04T19:28:54;27.4;25;17.4
45112;PMS5003;30873;53.908;27.576;2022-08-04T19:33:54;27.3;25.5;18.2
45112;PMS5003;30873;53.908;27.576;2022-08-04T19:38:55;28.9;26.4;18.2
45112;PMS5003;30873;53.908;27.576;2022-08-04T19:43:54;29.7;27.3;19.5
45112;PMS5003;30873;53.908;27.576;2022-08-04T19:48:54;30.5;28.6;19.7
45112;PMS5003;30873;53.908;27.576;2022-08-04T19:53:54;29.1;27.3;18.9
45112;PMS5003;30873;53.908;27.576;2022-08-04T19:58:54;29.9;27.2;18.8
45112;PMS5003;30873;53.908;27.576;2022-08-04T20:03:54;30.5;27.4;19.2
45112;PMS5003;30873;53.908;27.576;2022-08-04T20:08:54;31.7;29.7;19.5
45112;PMS5003;30873;53.908;27.576;2022-08-04T20:13:54;30.1;27.9;19.1
45112;PMS5003;30873;53.908;27.576;2022-08-04T20:18:54;31.4;29.1;19.5
45112;PMS5003;30873;53.908;27.576;2022-08-04T20:23:54;31.4;29.2;20.1
45112;PMS5003;30873;53.908;27.576;2022-08-04T20:28:54;31.5;28.6;19.5
45112;PMS5003;30873;53.908;27.576;2022-08-04T20:33:54;32.2;29.7;21
45112;PMS5003;30873;53.908;27.576;2022-08-04T20:38:54;30.1;28.1;19.5
45112;PMS5003;30873;53.908;27.576;2022-08-04T20:43:54;30.3;28.1;19.7
45112;PMS5003;30873;53.908;27.576;2022-08-04T20:48:54;29.5;27.7;19.1
45112;PMS5003;30873;53.908;27.576;2022-08-04T20:53:54;31.6;28.5;19.4
45112;PMS5003;30873;53.908;27.576;2022-08-04T20:58:54;31.2;29.3;20
45112;PMS5003;30873;53.908;27.576;2022-08-04T21:03:54;33.1;29.9;20.6
45112;PMS5003;30873;53.908;27.576;2022-08-04T21:08:54;31.1;29.3;20.4
45112;PMS5003;30873;53.908;27.576;2022-08-04T21:13:54;30.7;28.5;20.3
45112;PMS5003;30873;53.908;27.576;2022-08-04T21:18:54;32.8;30.3;20.8
45112;PMS5003;30873;53.908;27.576;2022-08-04T21:23:54;34;30.8;20.4
45112;PMS5003;30873;53.908;27.576;2022-08-04T21:28:54;33.9;31;20.9
45112;PMS5003;30873;53.908;27.576;2022-08-04T21:33:54;34.5;31.4;20.5
45112;PMS5003;30873;53.908;27.576;2022-08-04T21:38:55;32.6;30.2;20.7
45112;PMS5003;30873;53.908;27.576;2022-08-04T21:43:54;32.4;30.3;20.7
45112;PMS5003;30873;53.908;27.576;2022-08-04T21:48:54;32.5;29.8;20.1
45112;PMS5003;30873;53.908;27.576;2022-08-04T21:53:54;32.1;29.6;20.2
45112;PMS5003;30873;53.908;27.576;2022-08-04T21:58:54;34.5;31.7;20.7
45112;PMS5003;30873;53.908;27.576;2022-08-04T22:03:54;31.2;28.9;19.7
45112;PMS5003;30873;53.908;27.576;2022-08-04T22:08:54;28.5;26.4;18.3
45112;PMS5003;30873;53.908;27.576;2022-08-04T22:13:55;28.4;26.4;18.6
45112;PMS5003;30873;53.908;27.576;2022-08-04T22:18:55;28.1;25.6;17.9
45112;PMS5003;30873;53.908;27.576;2022-08-04T22:23:54;29.7;26.3;18.1
45112;PMS5003;30873;53.908;27.576;2022-08-04T22:28:55;27.5;25.9;18.4
45112;PMS5003;30873;53.908;27.576;2022-08-04T22:33:54;28.5;26.6;17.8
45112;PMS5003;30873;53.908;27.576;2022-08-04T22:38:54;25.8;24.3;16.6
45112;PMS5003;30873;53.908;27.576;2022-08-04T22:43:54;25.8;24.3;17.3
45112;PMS5003;30873;53.908;27.576;2022-08-04T22:48:54;27.8;25.5;17.4
45112;PMS5003;30873;53.908;27.576;2022-08-04T22:53:54;26.7;24.7;16.8
45112;PMS5003;30873;53.908;27.576;2022-08-04T22:58:54;27;25.1;16.9
45112;PMS5003;30873;53.908;27.576;2022-08-04T23:03:54;28.9;26.3;17.8
45112;PMS5003;30873;53.908;27.576;2022-08-04T23:08:54;27.5;25.8;16.9
45112;PMS5003;30873;53.908;27.576;2022-08-04T23:13:54;27;24.7;16.8
45112;PMS5003;30873;53.908;27.576;2022-08-04T23:18:54;26.9;24.5;16.7
45112;PMS5003;30873;53.908;27.576;2022-08-04T23:23:54;27.1;24.9;16.5
45112;PMS5003;30873;53.908;27.576;2022-08-04T23:28:54;26.9;24.6;16.5
45112;PMS5003;30873;53.908;27.576;2022-08-04T23:33:54;27.5;25.3;17.4
45112;PMS5003;30873;53.908;27.576;2022-08-04T23:38:57;27.8;25.3;17.1
45112;PMS5003;30873;53.908;27.576;2022-08-04T23:43:54;26.3;24.2;16.8
45112;PMS5003;30873;53.908;27.576;2022-08-04T23:48:54;28.7;25.9;17.2
45112;PMS5003;30873;53.908;27.576;2022-08-04T23:53:54;27.1;24.8;16.9
45112;PMS5003;30873;53.908;27.576;2022-08-04T23:58:54;29.3;27.4;17.4
